sensor_id;sensor_type;location;lat;lon;timestamp;P1;durP1;ratioP1;P2;durP2;ratioP2
9801;SDS011;4940;50.900;4.672;2024-02-21T00:00:56;39.05;;;35.13;;
9801;SDS011;4940;50.900;4.672;2024-02-21T00:03:24;39.88;;;35.92;;
9801;SDS011;4940;50.900;4.672;2024-02-21T00:05:51;40.47;;;36.28;;
9801;SDS011;4940;50.900;4.672;2024-02-21T00:08:19;41.13;;;37.05;;
9801;SDS011;4940;50.900;4.672;2024-02-21T00:10:47;40.22;;;36.22;;
9801;SDS011;4940;50.900;4.672;2024-02-21T00:13:15;41.70;;;37.53;;
9801;SDS011;4940;50.900;4.672;2024-02-21T00:15:42;41.78;;;37.58;;
9801;SDS011;4940;50.900;4.672;2024-02-21T00:18:10;47.13;;;42.20;;
9801;SDS011;4940;50.900;4.672;2024-02-21T00:20:37;46.60;;;41.97;;
9801;SDS011;4940;50.900;4.672;2024-02-21T00:23:05;43.40;;;39.13;;
9801;SDS011;4940;50.900;4.672;2024-02-21T00:25:32;45.15;;;37.95;;
9801;SDS011;4940;50.900;4.672;2024-02-21T00:28:01;40.88;;;36.72;;
9801;SDS011;4940;50.900;4.672;2024-02-21T00:30:28;41.17;;;37.00;;
9801;SDS011;4940;50.900;4.672;2024-02-21T00:32:55;43.10;;;37.75;;
9801;SDS011;4940;50.900;4.672;2024-02-21T00:35:23;40.33;;;36.15;;
9801;SDS011;4940;50.900;4.672;2024-02-21T00:37:50;40.83;;;36.70;;
9801;SDS011;4940;50.900;4.672;2024-02-21T00:40:18;39.67;;;35.78;;
9801;SDS011;4940;50.900;4.672;2024-02-21T00:42:47;40.20;;;36.05;;
9801;SDS011;4940;50.900;4.672;2024-02-21T00:45:16;40.30;;;36.20;;
9801;SDS011;4940;50.900;4.672;2024-02-21T00:47:43;43.67;;;39.05;;
9801;SDS011;4940;50.900;4.672;2024-02-21T00:50:11;46.55;;;41.88;;
9801;SDS011;4940;50.900;4.672;2024-02-21T00:52:38;46.10;;;40.40;;
9801;SDS011;4940;50.900;4.672;2024-02-21T00:55:06;46.92;;;41.83;;
9801;SDS011;4940;50.900;4.672;2024-02-21T00:57:34;47.03;;;40.75;;
9801;SDS011;4940;50.900;4.672;2024-02-21T01:00:01;46.15;;;41.50;;
9801;SDS011;4940;50.900;4.672;2024-02-21T01:02:30;50.58;;;42.25;;
9801;SDS011;4940;50.900;4.672;2024-02-21T01:04:58;45.85;;;40.90;;
9801;SDS011;4940;50.900;4.672;2024-02-21T01:07:25;45.28;;;40.53;;
9801;SDS011;4940;50.900;4.672;2024-02-21T01:09:53;47.33;;;41.53;;
9801;SDS011;4940;50.900;4.672;2024-02-21T01:12:20;49.13;;;41.15;;
9801;SDS011;4940;50.900;4.672;2024-02-21T01:14:47;46.40;;;41.13;;
9801;SDS011;4940;50.900;4.672;2024-02-21T01:17:15;47.63;;;42.55;;
9801;SDS011;4940;50.900;4.672;2024-02-21T01:19:46;46.45;;;41.67;;
9801;SDS011;4940;50.900;4.672;2024-02-21T01:22:13;47.42;;;42.33;;
9801;SDS011;4940;50.900;4.672;2024-02-21T01:24:41;46.42;;;41.40;;
9801;SDS011;4940;50.900;4.672;2024-02-21T01:27:09;44.22;;;39.63;;
9801;SDS011;4940;50.900;4.672;2024-02-21T01:29:36;44.28;;;39.60;;
9801;SDS011;4940;50.900;4.672;2024-02-21T01:32:04;44.45;;;39.92;;
9801;SDS011;4940;50.900;4.672;2024-02-21T01:34:31;46.03;;;41.17;;
9801;SDS011;4940;50.900;4.672;2024-02-21T01:37:00;46.20;;;41.55;;
9801;SDS011;4940;50.900;4.672;2024-02-21T01:39:29;44.40;;;40.00;;
9801;SDS011;4940;50.900;4.672;2024-02-21T01:41:57;44.08;;;39.33;;
9801;SDS011;4940;50.900;4.672;2024-02-21T01:44:24;41.70;;;37.22;;
9801;SDS011;4940;50.900;4.672;2024-02-21T01:46:52;39.78;;;35.63;;
9801;SDS011;4940;50.900;4.672;2024-02-21T01:49:19;39.08;;;35.10;;
9801;SDS011;4940;50.900;4.672;2024-02-21T01:51:48;41.47;;;37.05;;
9801;SDS011;4940;50.900;4.672;2024-02-21T01:54:16;40.10;;;36.17;;
9801;SDS011;4940;50.900;4.672;2024-02-21T01:56:45;39.90;;;35.92;;
9801;SDS011;4940;50.900;4.672;2024-02-21T01:59:13;39.20;;;34.92;;
9801;SDS011;4940;50.900;4.672;2024-02-21T02:01:42;38.28;;;34.20;;
9801;SDS011;4940;50.900;4.672;2024-02-21T02:04:10;40.90;;;35.33;;
9801;SDS011;4940;50.900;4.672;2024-02-21T02:06:38;40.63;;;36.78;;
9801;SDS011;4940;50.900;4.672;2024-02-21T02:09:06;38.13;;;34.05;;
9801;SDS011;4940;50.900;4.672;2024-02-21T02:11:35;39.15;;;35.38;;
9801;SDS011;4940;50.900;4.672;2024-02-21T02:14:02;40.92;;;36.58;;
9801;SDS011;4940;50.900;4.672;2024-02-21T02:16:30;41.30;;;35.85;;
9801;SDS011;4940;50.900;4.672;2024-02-21T02:18:57;41.42;;;36.92;;
9801;SDS011;4940;50.900;4.672;2024-02-21T02:21:27;39.97;;;35.83;;
9801;SDS011;4940;50.900;4.672;2024-02-21T02:23:57;41.17;;;36.97;;
9801;SDS011;4940;50.900;4.672;2024-02-21T02:26:26;41.03;;;37.08;;
9801;SDS011;4940;50.900;4.672;2024-02-21T02:28:53;40.75;;;36.58;;
9801;SDS011;4940;50.900;4.672;2024-02-21T02:31:21;43.40;;;39.03;;
9801;SDS011;4940;50.900;4.672;2024-02-21T02:33:48;40.70;;;36.55;;
9801;SDS011;4940;50.900;4.672;2024-02-21T02:36:16;42.03;;;37.72;;
9801;SDS011;4940;50.900;4.672;2024-02-21T02:38:43;41.13;;;36.83;;
9801;SDS011;4940;50.900;4.672;2024-02-21T02:41:12;43.67;;;37.70;;
9801;SDS011;4940;50.900;4.672;2024-02-21T02:43:40;43.10;;;38.63;;
9801;SDS011;4940;50.900;4.672;2024-02-21T02:46:07;44.33;;;38.25;;
9801;SDS011;4940;50.900;4.672;2024-02-21T02:48:35;42.42;;;38.03;;
9801;SDS011;4940;50.900;4.672;2024-02-21T02:51:03;41.38;;;36.92;;
9801;SDS011;4940;50.900;4.672;2024-02-21T02:53:31;40.90;;;36.97;;
9801;SDS011;4940;50.900;4.672;2024-02-21T02:55:58;43.20;;;38.42;;
9801;SDS011;4940;50.900;4.672;2024-02-21T02:58:28;42.08;;;37.08;;
9801;SDS011;4940;50.900;4.672;2024-02-21T03:00:55;42.53;;;38.00;;
9801;SDS011;4940;50.900;4.672;2024-02-21T03:03:22;43.55;;;38.92;;
9801;SDS011;4940;50.900;4.672;2024-02-21T03:05:50;42.42;;;37.83;;
9801;SDS011;4940;50.900;4.672;2024-02-21T03:08:17;42.55;;;38.17;;
9801;SDS011;4940;50.900;4.672;2024-02-21T03:10:44;42.75;;;38.25;;
9801;SDS011;4940;50.900;4.672;2024-02-21T03:13:12;42.15;;;37.72;;
9801;SDS011;4940;50.900;4.672;2024-02-21T03:15:40;42.78;;;38.67;;
9801;SDS011;4940;50.900;4.672;2024-02-21T03:18:08;42.25;;;38.05;;
9801;SDS011;4940;50.900;4.672;2024-02-21T03:20:35;42.22;;;37.72;;
9801;SDS011;4940;50.900;4.672;2024-02-21T03:23:03;42.58;;;38.10;;
9801;SDS011;4940;50.900;4.672;2024-02-21T03:25:30;39.92;;;35.75;;
9801;SDS011;4940;50.900;4.672;2024-02-21T03:27:58;39.33;;;35.55;;
9801;SDS011;4940;50.900;4.672;2024-02-21T03:30:25;39.00;;;35.13;;
9801;SDS011;4940;50.900;4.672;2024-02-21T03:32:54;39.13;;;35.33;;
9801;SDS011;4940;50.900;4.672;2024-02-21T03:35:21;39.15;;;35.08;;
9801;SDS011;4940;50.900;4.672;2024-02-21T03:37:51;38.70;;;35.03;;
9801;SDS011;4940;50.900;4.672;2024-02-21T03:40:19;37.90;;;34.42;;
9801;SDS011;4940;50.900;4.672;2024-02-21T03:42:46;39.35;;;35.42;;
9801;SDS011;4940;50.900;4.672;2024-02-21T03:45:14;39.80;;;35.80;;
9801;SDS011;4940;50.900;4.672;2024-02-21T03:47:41;38.63;;;35.00;;
9801;SDS011;4940;50.900;4.672;2024-02-21T03:50:10;40.08;;;36.20;;
9801;SDS011;4940;50.900;4.672;2024-02-21T03:52:37;40.65;;;36.40;;
9801;SDS011;4940;50.900;4.672;2024-02-21T03:55:05;39.13;;;35.15;;
9801;SDS011;4940;50.900;4.672;2024-02-21T03:57:33;40.33;;;34.78;;
9801;SDS011;4940;50.900;4.672;2024-02-21T04:00:00;38.28;;;34.42;;
9801;SDS011;4940;50.900;4.672;2024-02-21T04:02:29;37.97;;;34.47;;
9801;SDS011;4940;50.900;4.672;2024-02-21T04:04:57;40.20;;;35.97;;
9801;SDS011;4940;50.900;4.672;2024-02-21T04:07:26;39.85;;;35.63;;
9801;SDS011;4940;50.900;4.672;2024-02-21T04:09:53;41.15;;;36.78;;
9801;SDS011;4940;50.900;4.672;2024-02-21T04:12:20;40.10;;;36.00;;
9801;SDS011;4940;50.900;4.672;2024-02-21T04:14:48;39.97;;;36.15;;
9801;SDS011;4940;50.900;4.672;2024-02-21T04:17:15;38.00;;;33.83;;
9801;SDS011;4940;50.900;4.672;2024-02-21T04:19:43;39.25;;;35.05;;
9801;SDS011;4940;50.900;4.672;2024-02-21T04:22:10;38.03;;;34.17;;
9801;SDS011;4940;50.900;4.672;2024-02-21T04:24:39;39.58;;;35.50;;
9801;SDS011;4940;50.900;4.672;2024-02-21T04:27:06;40.42;;;36.53;;
9801;SDS011;4940;50.900;4.672;2024-02-21T04:29:34;40.47;;;36.35;;
9801;SDS011;4940;50.900;4.672;2024-02-21T04:32:01;40.08;;;35.97;;
9801;SDS011;4940;50.900;4.672;2024-02-21T04:34:30;39.85;;;35.78;;
9801;SDS011;4940;50.900;4.672;2024-02-21T04:36:57;39.95;;;35.47;;
9801;SDS011;4940;50.900;4.672;2024-02-21T04:39:24;40.55;;;36.28;;
9801;SDS011;4940;50.900;4.672;2024-02-21T04:41:53;40.03;;;35.80;;
9801;SDS011;4940;50.900;4.672;2024-02-21T04:44:21;39.13;;;35.15;;
9801;SDS011;4940;50.900;4.672;2024-02-21T04:46:48;41.30;;;37.40;;
9801;SDS011;4940;50.900;4.672;2024-02-21T04:49:16;40.17;;;36.20;;
9801;SDS011;4940;50.900;4.672;2024-02-21T04:51:44;39.65;;;35.53;;
9801;SDS011;4940;50.900;4.672;2024-02-21T04:54:11;39.25;;;35.05;;
9801;SDS011;4940;50.900;4.672;2024-02-21T04:56:39;39.17;;;35.13;;
9801;SDS011;4940;50.900;4.672;2024-02-21T04:59:08;40.03;;;35.78;;
9801;SDS011;4940;50.900;4.672;2024-02-21T05:01:35;39.40;;;35.55;;
9801;SDS011;4940;50.900;4.672;2024-02-21T05:04:02;43.28;;;39.03;;
9801;SDS011;4940;50.900;4.672;2024-02-21T05:06:30;42.63;;;37.88;;
9801;SDS011;4940;50.900;4.672;2024-02-21T05:08:57;40.58;;;36.40;;
9801;SDS011;4940;50.900;4.672;2024-02-21T05:11:25;40.60;;;36.58;;
9801;SDS011;4940;50.900;4.672;2024-02-21T05:13:53;44.15;;;39.92;;
9801;SDS011;4940;50.900;4.672;2024-02-21T05:16:22;40.65;;;36.42;;
9801;SDS011;4940;50.900;4.672;2024-02-21T05:18:49;39.90;;;35.85;;
9801;SDS011;4940;50.900;4.672;2024-02-21T05:21:16;37.63;;;34.28;;
9801;SDS011;4940;50.900;4.672;2024-02-21T05:23:44;38.95;;;35.25;;
9801;SDS011;4940;50.900;4.672;2024-02-21T05:26:12;37.90;;;34.70;;
9801;SDS011;4940;50.900;4.672;2024-02-21T05:28:47;37.97;;;34.53;;
9801;SDS011;4940;50.900;4.672;2024-02-21T05:31:15;38.92;;;35.63;;
9801;SDS011;4940;50.900;4.672;2024-02-21T05:33:44;37.42;;;34.20;;
9801;SDS011;4940;50.900;4.672;2024-02-21T05:36:12;37.85;;;34.47;;
9801;SDS011;4940;50.900;4.672;2024-02-21T05:38:40;38.90;;;35.45;;
9801;SDS011;4940;50.900;4.672;2024-02-21T05:41:07;38.08;;;34.38;;
9801;SDS011;4940;50.900;4.672;2024-02-21T05:43:35;36.42;;;33.20;;
9801;SDS011;4940;50.900;4.672;2024-02-21T05:46:02;37.70;;;34.17;;
9801;SDS011;4940;50.900;4.672;2024-02-21T05:48:29;36.40;;;32.90;;
9801;SDS011;4940;50.900;4.672;2024-02-21T05:50:58;37.90;;;34.42;;
9801;SDS011;4940;50.900;4.672;2024-02-21T05:53:28;36.80;;;33.50;;
9801;SDS011;4940;50.900;4.672;2024-02-21T05:55:56;36.33;;;33.00;;
9801;SDS011;4940;50.900;4.672;2024-02-21T05:58:23;35.17;;;32.08;;
9801;SDS011;4940;50.900;4.672;2024-02-21T06:00:51;35.42;;;32.03;;
9801;SDS011;4940;50.900;4.672;2024-02-21T06:03:19;33.72;;;30.73;;
9801;SDS011;4940;50.900;4.672;2024-02-21T06:05:47;34.45;;;31.27;;
9801;SDS011;4940;50.900;4.672;2024-02-21T06:08:15;33.58;;;30.63;;
9801;SDS011;4940;50.900;4.672;2024-02-21T06:10:43;34.35;;;30.90;;
9801;SDS011;4940;50.900;4.672;2024-02-21T06:13:10;33.28;;;30.20;;
9801;SDS011;4940;50.900;4.672;2024-02-21T06:15:38;34.70;;;31.73;;
9801;SDS011;4940;50.900;4.672;2024-02-21T06:18:06;34.33;;;31.48;;
9801;SDS011;4940;50.900;4.672;2024-02-21T06:20:33;33.45;;;30.67;;
9801;SDS011;4940;50.900;4.672;2024-02-21T06:23:02;34.40;;;31.58;;
9801;SDS011;4940;50.900;4.672;2024-02-21T06:25:30;33.20;;;30.25;;
9801;SDS011;4940;50.900;4.672;2024-02-21T06:27:58;33.22;;;30.17;;
9801;SDS011;4940;50.900;4.672;2024-02-21T06:30:26;36.15;;;33.13;;
9801;SDS011;4940;50.900;4.672;2024-02-21T06:32:53;35.83;;;32.63;;
9801;SDS011;4940;50.900;4.672;2024-02-21T06:35:21;34.80;;;31.70;;
9801;SDS011;4940;50.900;4.672;2024-02-21T06:37:49;34.30;;;31.50;;
9801;SDS011;4940;50.900;4.672;2024-02-21T06:40:17;35.47;;;32.63;;
9801;SDS011;4940;50.900;4.672;2024-02-21T06:42:46;36.05;;;33.15;;
9801;SDS011;4940;50.900;4.672;2024-02-21T06:45:14;33.83;;;31.13;;
9801;SDS011;4940;50.900;4.672;2024-02-21T06:47:42;36.13;;;33.13;;
9801;SDS011;4940;50.900;4.672;2024-02-21T06:50:09;36.83;;;33.60;;
9801;SDS011;4940;50.900;4.672;2024-02-21T06:52:37;37.88;;;34.78;;
9801;SDS011;4940;50.900;4.672;2024-02-21T06:55:04;36.08;;;33.28;;
9801;SDS011;4940;50.900;4.672;2024-02-21T06:57:32;36.83;;;33.42;;
9801;SDS011;4940;50.900;4.672;2024-02-21T07:00:01;36.17;;;33.15;;
9801;SDS011;4940;50.900;4.672;2024-02-21T07:02:32;37.55;;;34.47;;
9801;SDS011;4940;50.900;4.672;2024-02-21T07:05:04;36.92;;;33.83;;
9801;SDS011;4940;50.900;4.672;2024-02-21T07:07:31;39.30;;;36.20;;
9801;SDS011;4940;50.900;4.672;2024-02-21T07:10:00;39.50;;;36.15;;
9801;SDS011;4940;50.900;4.672;2024-02-21T07:12:28;41.08;;;37.63;;
9801;SDS011;4940;50.900;4.672;2024-02-21T07:14:55;40.78;;;37.17;;
9801;SDS011;4940;50.900;4.672;2024-02-21T07:17:24;39.80;;;36.60;;
9801;SDS011;4940;50.900;4.672;2024-02-21T07:19:51;40.42;;;36.80;;
9801;SDS011;4940;50.900;4.672;2024-02-21T07:22:22;42.53;;;38.72;;
9801;SDS011;4940;50.900;4.672;2024-02-21T07:24:49;45.53;;;41.60;;
9801;SDS011;4940;50.900;4.672;2024-02-21T07:27:17;44.05;;;40.00;;
9801;SDS011;4940;50.900;4.672;2024-02-21T07:29:44;46.17;;;41.97;;
9801;SDS011;4940;50.900;4.672;2024-02-21T07:32:14;49.78;;;45.58;;
9801;SDS011;4940;50.900;4.672;2024-02-21T07:34:42;50.83;;;46.10;;
9801;SDS011;4940;50.900;4.672;2024-02-21T07:37:10;49.72;;;45.40;;
9801;SDS011;4940;50.900;4.672;2024-02-21T07:39:38;49.22;;;44.92;;
9801;SDS011;4940;50.900;4.672;2024-02-21T07:42:05;49.40;;;45.35;;
9801;SDS011;4940;50.900;4.672;2024-02-21T07:44:33;51.15;;;46.83;;
9801;SDS011;4940;50.900;4.672;2024-02-21T07:47:01;51.78;;;47.13;;
9801;SDS011;4940;50.900;4.672;2024-02-21T07:49:28;52.47;;;47.97;;
9801;SDS011;4940;50.900;4.672;2024-02-21T07:51:57;52.47;;;48.08;;
9801;SDS011;4940;50.900;4.672;2024-02-21T07:54:27;53.35;;;48.45;;
9801;SDS011;4940;50.900;4.672;2024-02-21T07:56:54;53.90;;;48.58;;
9801;SDS011;4940;50.900;4.672;2024-02-21T07:59:22;54.95;;;49.65;;
9801;SDS011;4940;50.900;4.672;2024-02-21T08:01:49;55.72;;;50.45;;
9801;SDS011;4940;50.900;4.672;2024-02-21T08:04:17;53.65;;;48.85;;
9801;SDS011;4940;50.900;4.672;2024-02-21T08:06:44;52.45;;;47.75;;
9801;SDS011;4940;50.900;4.672;2024-02-21T08:09:15;52.13;;;47.30;;
9801;SDS011;4940;50.900;4.672;2024-02-21T08:11:42;53.60;;;48.90;;
9801;SDS011;4940;50.900;4.672;2024-02-21T08:14:10;54.05;;;49.15;;
9801;SDS011;4940;50.900;4.672;2024-02-21T08:16:41;52.10;;;46.90;;
9801;SDS011;4940;50.900;4.672;2024-02-21T08:19:08;51.20;;;46.65;;
9801;SDS011;4940;50.900;4.672;2024-02-21T08:21:36;50.33;;;45.83;;
9801;SDS011;4940;50.900;4.672;2024-02-21T08:24:04;51.25;;;46.42;;
9801;SDS011;4940;50.900;4.672;2024-02-21T08:26:32;48.15;;;43.63;;
9801;SDS011;4940;50.900;4.672;2024-02-21T08:29:01;49.92;;;45.63;;
9801;SDS011;4940;50.900;4.672;2024-02-21T08:31:28;48.72;;;44.38;;
9801;SDS011;4940;50.900;4.672;2024-02-21T08:33:57;48.10;;;43.90;;
9801;SDS011;4940;50.900;4.672;2024-02-21T08:36:27;49.33;;;44.85;;
9801;SDS011;4940;50.900;4.672;2024-02-21T08:38:55;47.45;;;43.45;;
9801;SDS011;4940;50.900;4.672;2024-02-21T08:41:23;46.85;;;42.55;;
9801;SDS011;4940;50.900;4.672;2024-02-21T08:43:52;46.92;;;42.42;;
9801;SDS011;4940;50.900;4.672;2024-02-21T08:46:20;46.63;;;42.45;;
9801;SDS011;4940;50.900;4.672;2024-02-21T08:48:49;46.47;;;42.40;;
9801;SDS011;4940;50.900;4.672;2024-02-21T08:51:17;47.67;;;43.70;;
9801;SDS011;4940;50.900;4.672;2024-02-21T08:53:45;46.50;;;42.40;;
9801;SDS011;4940;50.900;4.672;2024-02-21T08:56:13;42.85;;;39.25;;
9801;SDS011;4940;50.900;4.672;2024-02-21T08:58:40;42.83;;;38.90;;
9801;SDS011;4940;50.900;4.672;2024-02-21T09:01:09;46.05;;;41.80;;
9801;SDS011;4940;50.900;4.672;2024-02-21T09:03:36;43.65;;;39.55;;
9801;SDS011;4940;50.900;4.672;2024-02-21T09:06:04;42.35;;;38.53;;
9801;SDS011;4940;50.900;4.672;2024-02-21T09:08:31;43.13;;;39.28;;
9801;SDS011;4940;50.900;4.672;2024-02-21T09:10:59;40.50;;;37.05;;
9801;SDS011;4940;50.900;4.672;2024-02-21T09:13:27;41.35;;;37.60;;
9801;SDS011;4940;50.900;4.672;2024-02-21T09:15:55;40.05;;;36.63;;
9801;SDS011;4940;50.900;4.672;2024-02-21T09:18:24;38.80;;;35.45;;
9801;SDS011;4940;50.900;4.672;2024-02-21T09:20:51;39.63;;;36.22;;
9801;SDS011;4940;50.900;4.672;2024-02-21T09:23:19;39.83;;;36.53;;
9801;SDS011;4940;50.900;4.672;2024-02-21T09:25:46;40.30;;;37.10;;
9801;SDS011;4940;50.900;4.672;2024-02-21T09:28:14;40.55;;;37.00;;
9801;SDS011;4940;50.900;4.672;2024-02-21T09:30:41;39.47;;;36.20;;
9801;SDS011;4940;50.900;4.672;2024-02-21T09:33:09;40.30;;;36.92;;
9801;SDS011;4940;50.900;4.672;2024-02-21T09:35:37;38.38;;;34.97;;
9801;SDS011;4940;50.900;4.672;2024-02-21T09:38:05;38.85;;;35.72;;
9801;SDS011;4940;50.900;4.672;2024-02-21T09:40:32;38.08;;;34.85;;
9801;SDS011;4940;50.900;4.672;2024-02-21T09:43:04;38.90;;;35.70;;
9801;SDS011;4940;50.900;4.672;2024-02-21T09:45:32;38.95;;;36.00;;
9801;SDS011;4940;50.900;4.672;2024-02-21T09:48:05;40.35;;;37.22;;
9801;SDS011;4940;50.900;4.672;2024-02-21T09:50:47;38.63;;;35.63;;
9801;SDS011;4940;50.900;4.672;2024-02-21T09:53:16;38.08;;;34.90;;
9801;SDS011;4940;50.900;4.672;2024-02-21T09:55:43;37.28;;;34.30;;
9801;SDS011;4940;50.900;4.672;2024-02-21T09:58:11;37.83;;;34.88;;
9801;SDS011;4940;50.900;4.672;2024-02-21T10:00:39;37.13;;;34.63;;
9801;SDS011;4940;50.900;4.672;2024-02-21T10:03:07;36.78;;;34.22;;
9801;SDS011;4940;50.900;4.672;2024-02-21T10:05:35;38.05;;;34.85;;
9801;SDS011;4940;50.900;4.672;2024-02-21T10:08:05;37.28;;;34.42;;
9801;SDS011;4940;50.900;4.672;2024-02-21T10:10:40;35.83;;;33.17;;
9801;SDS011;4940;50.900;4.672;2024-02-21T10:13:09;35.35;;;32.85;;
9801;SDS011;4940;50.900;4.672;2024-02-21T10:15:37;36.00;;;33.63;;
9801;SDS011;4940;50.900;4.672;2024-02-21T10:18:04;36.95;;;34.15;;
9801;SDS011;4940;50.900;4.672;2024-02-21T10:20:32;35.35;;;33.03;;
9801;SDS011;4940;50.900;4.672;2024-02-21T10:23:00;35.13;;;32.92;;
9801;SDS011;4940;50.900;4.672;2024-02-21T10:25:29;34.47;;;32.22;;
9801;SDS011;4940;50.900;4.672;2024-02-21T10:27:57;34.95;;;32.75;;
9801;SDS011;4940;50.900;4.672;2024-02-21T10:30:24;34.90;;;32.55;;
9801;SDS011;4940;50.900;4.672;2024-02-21T10:32:52;34.80;;;32.50;;
9801;SDS011;4940;50.900;4.672;2024-02-21T10:35:26;34.80;;;32.50;;
9801;SDS011;4940;50.900;4.672;2024-02-21T10:37:57;34.63;;;32.00;;
9801;SDS011;4940;50.900;4.672;2024-02-21T10:40:30;31.05;;;29.13;;
9801;SDS011;4940;50.900;4.672;2024-02-21T10:42:58;31.30;;;29.30;;
9801;SDS011;4940;50.900;4.672;2024-02-21T10:45:28;30.15;;;28.08;;
9801;SDS011;4940;50.900;4.672;2024-02-21T10:48:00;30.48;;;28.40;;
9801;SDS011;4940;50.900;4.672;2024-02-21T10:50:33;30.45;;;28.02;;
9801;SDS011;4940;50.900;4.672;2024-02-21T10:53:08;29.98;;;28.13;;
9801;SDS011;4940;50.900;4.672;2024-02-21T10:55:47;29.17;;;27.23;;
9801;SDS011;4940;50.900;4.672;2024-02-21T10:58:22;27.00;;;25.40;;
9801;SDS011;4940;50.900;4.672;2024-02-21T11:00:50;26.33;;;24.48;;
9801;SDS011;4940;50.900;4.672;2024-02-21T11:03:18;25.05;;;23.50;;
9801;SDS011;4940;50.900;4.672;2024-02-21T11:05:46;25.98;;;24.40;;
9801;SDS011;4940;50.900;4.672;2024-02-21T11:08:13;26.17;;;24.25;;
9801;SDS011;4940;50.900;4.672;2024-02-21T11:10:45;27.75;;;26.08;;
9801;SDS011;4940;50.900;4.672;2024-02-21T11:13:14;25.38;;;23.65;;
9801;SDS011;4940;50.900;4.672;2024-02-21T11:15:41;27.40;;;25.77;;
9801;SDS011;4940;50.900;4.672;2024-02-21T11:32:27;23.38;;;21.45;;
9801;SDS011;4940;50.900;4.672;2024-02-21T11:35:00;22.52;;;21.13;;
9801;SDS011;4940;50.900;4.672;2024-02-21T11:37:43;23.27;;;21.77;;
9801;SDS011;4940;50.900;4.672;2024-02-21T11:40:19;21.25;;;19.65;;
9801;SDS011;4940;50.900;4.672;2024-02-21T11:42:49;18.70;;;17.50;;
9801;SDS011;4940;50.900;4.672;2024-02-21T11:45:17;19.08;;;17.73;;
9801;SDS011;4940;50.900;4.672;2024-02-21T11:47:55;20.15;;;18.85;;
9801;SDS011;4940;50.900;4.672;2024-02-21T11:50:26;20.40;;;19.05;;
9801;SDS011;4940;50.900;4.672;2024-02-21T11:53:01;19.92;;;18.73;;
9801;SDS011;4940;50.900;4.672;2024-02-21T11:55:37;19.73;;;18.42;;
9801;SDS011;4940;50.900;4.672;2024-02-21T11:58:07;20.80;;;19.50;;
9801;SDS011;4940;50.900;4.672;2024-02-21T12:00:35;18.63;;;17.55;;
9801;SDS011;4940;50.900;4.672;2024-02-21T12:03:24;19.88;;;18.50;;
9801;SDS011;4940;50.900;4.672;2024-02-21T12:05:55;19.80;;;18.42;;
9801;SDS011;4940;50.900;4.672;2024-02-21T12:08:25;18.92;;;17.63;;
9801;SDS011;4940;50.900;4.672;2024-02-21T12:10:54;18.90;;;17.75;;
9801;SDS011;4940;50.900;4.672;2024-02-21T12:13:47;18.83;;;17.83;;
9801;SDS011;4940;50.900;4.672;2024-02-21T12:16:17;18.35;;;17.15;;
9801;SDS011;4940;50.900;4.672;2024-02-21T12:21:33;20.30;;;19.05;;
9801;SDS011;4940;50.900;4.672;2024-02-21T12:24:14;21.67;;;20.25;;
9801;SDS011;4940;50.900;4.672;2024-02-21T12:29:43;21.23;;;19.95;;
9801;SDS011;4940;50.900;4.672;2024-02-21T12:32:25;20.77;;;19.58;;
9801;SDS011;4940;50.900;4.672;2024-02-21T12:35:10;21.27;;;19.98;;
9801;SDS011;4940;50.900;4.672;2024-02-21T12:37:56;22.13;;;20.80;;
9801;SDS011;4940;50.900;4.672;2024-02-21T12:40:28;20.67;;;19.35;;
9801;SDS011;4940;50.900;4.672;2024-02-21T12:43:09;18.55;;;17.42;;
9801;SDS011;4940;50.900;4.672;2024-02-21T12:45:37;20.20;;;18.83;;
9801;SDS011;4940;50.900;4.672;2024-02-21T12:48:04;19.90;;;18.77;;
9801;SDS011;4940;50.900;4.672;2024-02-21T12:50:40;20.45;;;19.05;;
9801;SDS011;4940;50.900;4.672;2024-02-21T12:53:32;19.50;;;18.35;;
9801;SDS011;4940;50.900;4.672;2024-02-21T12:56:07;20.00;;;18.40;;
9801;SDS011;4940;50.900;4.672;2024-02-21T12:58:40;19.70;;;18.33;;
9801;SDS011;4940;50.900;4.672;2024-02-21T13:01:16;18.70;;;17.40;;
9801;SDS011;4940;50.900;4.672;2024-02-21T13:03:52;18.75;;;17.45;;
9801;SDS011;4940;50.900;4.672;2024-02-21T13:06:21;20.35;;;19.00;;
9801;SDS011;4940;50.900;4.672;2024-02-21T13:11:48;20.48;;;19.10;;
9801;SDS011;4940;50.900;4.672;2024-02-21T13:14:18;19.48;;;18.38;;
9801;SDS011;4940;50.900;4.672;2024-02-21T13:16:49;18.63;;;17.40;;
9801;SDS011;4940;50.900;4.672;2024-02-21T13:19:20;19.30;;;18.02;;
9801;SDS011;4940;50.900;4.672;2024-02-21T13:21:55;18.88;;;17.67;;
9801;SDS011;4940;50.900;4.672;2024-02-21T13:24:49;20.10;;;18.83;;
9801;SDS011;4940;50.900;4.672;2024-02-21T13:27:32;19.83;;;18.63;;
9801;SDS011;4940;50.900;4.672;2024-02-21T13:33:15;20.88;;;19.45;;
9801;SDS011;4940;50.900;4.672;2024-02-21T13:39:24;18.98;;;17.75;;
9801;SDS011;4940;50.900;4.672;2024-02-21T13:42:00;20.83;;;19.35;;
9801;SDS011;4940;50.900;4.672;2024-02-21T13:44:34;20.88;;;19.58;;
9801;SDS011;4940;50.900;4.672;2024-02-21T13:47:05;22.33;;;20.95;;
9801;SDS011;4940;50.900;4.672;2024-02-21T13:49:41;22.38;;;21.05;;
9801;SDS011;4940;50.900;4.672;2024-02-21T13:52:22;23.35;;;21.80;;
9801;SDS011;4940;50.900;4.672;2024-02-21T13:54:52;22.10;;;20.73;;
9801;SDS011;4940;50.900;4.672;2024-02-21T14:03:08;27.85;;;26.25;;
9801;SDS011;4940;50.900;4.672;2024-02-21T14:06:44;31.02;;;29.13;;
9801;SDS011;4940;50.900;4.672;2024-02-21T14:09:12;32.63;;;30.27;;
9801;SDS011;4940;50.900;4.672;2024-02-21T14:11:39;34.58;;;32.40;;
9801;SDS011;4940;50.900;4.672;2024-02-21T14:14:07;34.28;;;31.90;;
9801;SDS011;4940;50.900;4.672;2024-02-21T14:16:35;35.50;;;33.22;;
9801;SDS011;4940;50.900;4.672;2024-02-21T14:19:02;35.97;;;33.55;;
9801;SDS011;4940;50.900;4.672;2024-02-21T14:21:30;38.83;;;36.22;;
9801;SDS011;4940;50.900;4.672;2024-02-21T14:23:59;39.28;;;36.28;;
9801;SDS011;4940;50.900;4.672;2024-02-21T14:26:28;42.20;;;39.20;;
9801;SDS011;4940;50.900;4.672;2024-02-21T14:28:56;41.08;;;37.90;;
9801;SDS011;4940;50.900;4.672;2024-02-21T14:31:23;39.08;;;36.45;;
9801;SDS011;4940;50.900;4.672;2024-02-21T14:33:51;40.08;;;37.30;;
9801;SDS011;4940;50.900;4.672;2024-02-21T14:36:19;41.30;;;38.38;;
9801;SDS011;4940;50.900;4.672;2024-02-21T14:38:49;41.63;;;38.40;;
9801;SDS011;4940;50.900;4.672;2024-02-21T14:41:18;42.60;;;39.40;;
9801;SDS011;4940;50.900;4.672;2024-02-21T14:43:46;42.97;;;39.20;;
9801;SDS011;4940;50.900;4.672;2024-02-21T14:46:13;46.22;;;42.40;;
9801;SDS011;4940;50.900;4.672;2024-02-21T14:48:41;46.55;;;42.90;;
9801;SDS011;4940;50.900;4.672;2024-02-21T14:51:08;46.40;;;42.53;;
9801;SDS011;4940;50.900;4.672;2024-02-21T14:53:36;45.13;;;41.33;;
9801;SDS011;4940;50.900;4.672;2024-02-21T14:56:03;49.15;;;45.22;;
9801;SDS011;4940;50.900;4.672;2024-02-21T14:58:33;45.42;;;41.80;;
9801;SDS011;4940;50.900;4.672;2024-02-21T15:01:00;48.58;;;44.42;;
9801;SDS011;4940;50.900;4.672;2024-02-21T15:03:28;50.20;;;46.25;;
9801;SDS011;4940;50.900;4.672;2024-02-21T15:05:55;53.25;;;48.63;;
9801;SDS011;4940;50.900;4.672;2024-02-21T15:08:23;52.50;;;48.03;;
9801;SDS011;4940;50.900;4.672;2024-02-21T15:10:50;53.38;;;49.10;;
9801;SDS011;4940;50.900;4.672;2024-02-21T15:13:17;52.15;;;47.58;;
9801;SDS011;4940;50.900;4.672;2024-02-21T15:15:46;52.33;;;48.05;;
9801;SDS011;4940;50.900;4.672;2024-02-21T15:18:14;53.92;;;49.25;;
9801;SDS011;4940;50.900;4.672;2024-02-21T15:20:42;54.72;;;50.33;;
9801;SDS011;4940;50.900;4.672;2024-02-21T15:23:09;54.05;;;49.60;;
9801;SDS011;4940;50.900;4.672;2024-02-21T15:25:37;50.45;;;46.05;;
9801;SDS011;4940;50.900;4.672;2024-02-21T15:28:05;48.78;;;44.55;;
9801;SDS011;4940;50.900;4.672;2024-02-21T15:30:32;49.50;;;45.15;;
9801;SDS011;4940;50.900;4.672;2024-02-21T15:33:01;52.08;;;47.53;;
9801;SDS011;4940;50.900;4.672;2024-02-21T15:35:29;50.10;;;45.72;;